createdAt,value
2018-11-14T00:00:24.796Z,6.69
2018-11-14T00:01:24.370Z,6.69
2018-11-14T00:02:23.354Z,6.69
2018-11-14T00:03:25.157Z,6.69
2018-11-14T00:04:33.646Z,6.68
2018-11-14T00:05:25.648Z,6.68
2018-11-14T00:06:27.248Z,6.68
2018-11-14T00:07:27.906Z,6.67
2018-11-14T00:08:28.763Z,6.66
2018-11-14T00:09:29.312Z,6.66
2018-11-14T00:10:28.789Z,6.65
2018-11-14T00:11:30.157Z,6.64
2018-11-14T00:12:30.753Z,6.63
2018-11-14T00:13:31.342Z,6.62
2018-11-14T00:14:31.719Z,6.60
2018-11-14T00:15:32.621Z,6.59
2018-11-14T00:16:33.427Z,6.58
2018-11-14T00:17:33.984Z,6.57
2018-11-14T00:18:34.588Z,6.56
2018-11-14T00:19:35.154Z,6.54
2018-11-14T00:20:34.427Z,6.53
2018-11-14T00:21:35.827Z,6.52
2018-11-14T00:22:36.235Z,6.51
2018-11-14T00:23:36.693Z,6.49
2018-11-14T00:24:37.194Z,6.48
2018-11-14T00:25:36.576Z,6.47
2018-11-14T00:26:39.640Z,6.46
2018-11-14T00:27:38.111Z,6.45
2018-11-14T00:28:39.703Z,6.44
2018-11-14T00:29:40.609Z,6.43
2018-11-14T00:30:39.752Z,6.42
2018-11-14T00:31:41.156Z,6.41
2018-11-14T00:32:41.256Z,6.40
2018-11-14T00:33:41.758Z,6.39
2018-11-14T00:34:41.075Z,6.38
2018-11-14T00:35:41.539Z,6.37
2018-11-14T00:36:43.062Z,6.36
2018-11-14T00:37:43.479Z,6.34
2018-11-14T00:38:44.118Z,6.32
2018-11-14T00:39:44.525Z,6.30
2018-11-14T00:40:45.000Z,6.28
2018-11-14T00:41:45.355Z,6.27
2018-11-14T00:42:45.991Z,6.26
2018-11-14T00:43:45.552Z,6.25
2018-11-14T00:44:47.382Z,6.24
2018-11-14T00:45:47.905Z,6.23
2018-11-14T00:46:48.428Z,6.22
2018-11-14T00:47:48.864Z,6.21
2018-11-14T00:48:49.321Z,6.20
2018-11-14T00:49:49.795Z,6.19
2018-11-14T00:50:50.041Z,6.18
2018-11-14T00:51:49.483Z,6.17
2018-11-14T00:52:51.214Z,6.16
2018-11-14T00:52:59.374Z,6.06
2018-11-14T00:54:00.959Z,6.06
2018-11-14T00:55:01.296Z,6.06
2018-11-14T00:56:01.843Z,6.06
2018-11-14T00:57:02.530Z,6.07
2018-11-14T00:58:02.936Z,6.07
2018-11-14T00:59:03.360Z,6.08
2018-11-14T01:00:03.831Z,6.08
2018-11-14T01:01:03.239Z,6.09
2018-11-14T01:02:04.706Z,6.10
2018-11-14T01:03:05.178Z,6.10
2018-11-14T01:04:04.784Z,6.10
2018-11-14T01:05:06.506Z,6.11
2018-11-14T01:06:07.147Z,6.11
2018-11-14T01:07:07.650Z,6.10
2018-11-14T01:08:07.999Z,6.10
2018-11-14T01:09:09.379Z,6.09
2018-11-14T01:10:09.226Z,6.08
2018-11-14T01:11:09.794Z,6.08
2018-11-14T01:12:10.494Z,6.07
2018-11-14T01:13:09.712Z,6.07
2018-11-14T01:14:09.907Z,6.06
2018-11-14T01:15:11.448Z,6.06
2018-11-14T01:16:11.914Z,6.06
2018-11-14T01:17:12.333Z,6.05
2018-11-14T01:18:12.745Z,6.05
2018-11-14T01:19:13.104Z,6.05
2018-11-14T01:20:13.583Z,6.04
2018-11-14T01:21:14.031Z,6.03
2018-11-14T01:22:14.413Z,6.02
2018-11-14T01:23:15.212Z,6.01
2018-11-14T01:24:15.716Z,5.99
2018-11-14T01:25:16.023Z,5.98
2018-11-14T01:26:16.438Z,5.97
2018-11-14T01:27:16.884Z,5.97
2018-11-14T01:28:17.648Z,5.95
2018-11-14T01:29:18.064Z,5.93
2018-11-14T01:30:18.622Z,5.92
2018-11-14T01:31:19.329Z,5.91
2018-11-14T01:32:19.666Z,5.89
2018-11-14T01:33:20.238Z,5.88
2018-11-14T01:34:20.677Z,5.86
2018-11-14T01:35:21.196Z,5.85
2018-11-14T01:36:21.687Z,5.83
2018-11-14T01:37:22.235Z,5.82
2018-11-14T01:38:22.730Z,5.81
2018-11-14T01:38:31.212Z,5.55
2018-11-14T01:39:32.038Z,5.55
2018-11-14T01:40:32.627Z,5.55
2018-11-14T01:41:33.185Z,5.55
2018-11-14T01:42:33.767Z,5.55
2018-11-14T01:43:34.392Z,5.55
2018-11-14T01:44:34.815Z,5.54
2018-11-14T01:45:35.672Z,5.54
2018-11-14T01:46:36.051Z,5.54
2018-11-14T01:47:36.513Z,5.54
2018-11-14T01:48:36.094Z,5.54
2018-11-14T01:49:37.444Z,5.53
2018-11-14T01:50:37.862Z,5.53
2018-11-14T01:51:38.229Z,5.53
2018-11-14T01:52:38.796Z,5.53
2018-11-14T01:53:39.182Z,5.52
2018-11-14T01:54:39.806Z,5.52
2018-11-14T01:55:40.424Z,5.52
2018-11-14T01:56:40.838Z,5.52
2018-11-14T01:57:41.206Z,5.52
2018-11-14T01:58:41.700Z,5.52
2018-11-14T01:59:42.319Z,5.52
2018-11-14T02:00:42.732Z,5.51
2018-11-14T02:01:42.855Z,5.51
2018-11-14T02:02:43.416Z,5.50
2018-11-14T02:03:43.853Z,5.49
2018-11-14T02:04:45.389Z,5.49
2018-11-14T02:05:45.123Z,5.48
2018-11-14T02:06:46.057Z,5.48
2018-11-14T02:07:46.453Z,5.48
2018-11-14T02:08:47.115Z,5.48
2018-11-14T02:09:47.676Z,5.48
2018-11-14T02:10:48.151Z,5.48
2018-11-14T02:11:48.484Z,5.47
2018-11-14T02:12:48.807Z,5.47
2018-11-14T02:13:48.282Z,5.47
2018-11-14T02:14:49.643Z,5.47
2018-11-14T02:15:50.301Z,5.48
2018-11-14T02:16:50.471Z,5.48
2018-11-14T02:17:51.096Z,5.48
2018-11-14T02:18:51.633Z,5.48
2018-11-14T02:19:52.081Z,5.48
2018-11-14T02:20:52.446Z,5.49
2018-11-14T02:21:52.733Z,5.49
2018-11-14T02:22:53.112Z,5.49
2018-11-14T02:23:53.492Z,5.50
2018-11-14T02:24:54.103Z,5.51
2018-11-14T02:25:02.569Z,5.61
2018-11-14T02:26:04.003Z,5.60
2018-11-14T02:27:04.466Z,5.60
2018-11-14T02:28:05.208Z,5.61
2018-11-14T02:29:06.081Z,5.61
2018-11-14T02:30:06.501Z,5.61
2018-11-14T02:31:07.060Z,5.61
2018-11-14T02:32:07.475Z,5.61
2018-11-14T02:33:08.093Z,5.61
2018-11-14T02:34:08.717Z,5.61
2018-11-14T02:35:09.094Z,5.60
2018-11-14T02:36:09.686Z,5.60
2018-11-14T02:37:10.238Z,5.60
2018-11-14T02:38:10.695Z,5.59
2018-11-14T02:39:11.172Z,5.58
2018-11-14T02:40:11.578Z,5.57
2018-11-14T02:41:12.246Z,5.56
2018-11-14T02:42:12.767Z,5.55
2018-11-14T02:43:13.419Z,5.54
2018-11-14T02:44:14.028Z,5.54
2018-11-14T02:45:14.584Z,5.53
2018-11-14T02:46:15.203Z,5.52
2018-11-14T02:47:15.954Z,5.51
2018-11-14T02:48:16.666Z,5.50
2018-11-14T02:49:17.643Z,5.49
2018-11-14T02:50:18.178Z,5.48
2018-11-14T02:51:18.722Z,5.48
2018-11-14T02:52:18.864Z,5.46
2018-11-14T02:53:18.163Z,5.45
2018-11-14T02:54:19.530Z,5.45
2018-11-14T02:55:19.874Z,5.43
2018-11-14T02:56:20.393Z,5.42
2018-11-14T02:57:20.941Z,5.41
2018-11-14T02:58:21.618Z,5.39
2018-11-14T02:59:21.921Z,5.38
2018-11-14T03:00:22.793Z,5.38
2018-11-14T03:01:23.410Z,5.37
2018-11-14T03:02:23.184Z,5.36
2018-11-14T03:03:24.181Z,5.35
2018-11-14T03:04:24.641Z,5.35
2018-11-14T03:05:25.087Z,5.34
2018-11-14T03:06:25.668Z,5.33
2018-11-14T03:07:26.176Z,5.33
2018-11-14T03:08:26.602Z,5.32
2018-11-14T03:09:26.949Z,5.32
2018-11-14T03:10:27.498Z,5.32
2018-11-14T03:11:27.941Z,5.32
2018-11-14T03:11:36.285Z,5.31
2018-11-14T03:12:37.875Z,5.30
2018-11-14T03:13:37.135Z,5.30
2018-11-14T03:14:38.566Z,5.30
2018-11-14T03:15:38.973Z,5.29
2018-11-14T03:16:39.563Z,5.29
2018-11-14T03:17:39.998Z,5.28
2018-11-14T03:18:40.645Z,5.28
2018-11-14T03:19:41.165Z,5.27
2018-11-14T03:20:40.514Z,5.26
2018-11-14T03:21:42.017Z,5.25
2018-11-14T03:22:42.684Z,5.25
2018-11-14T03:23:43.032Z,5.24
2018-11-14T03:24:43.499Z,5.24
2018-11-14T03:25:43.886Z,5.23
2018-11-14T03:26:44.234Z,5.23
2018-11-14T03:27:45.056Z,5.23
2018-11-14T03:28:45.714Z,5.22
2018-11-14T03:29:46.218Z,5.22
2018-11-14T03:30:45.279Z,5.21
2018-11-14T03:31:46.682Z,5.21
2018-11-14T03:32:47.147Z,5.20
2018-11-14T03:33:47.962Z,5.20
2018-11-14T03:34:48.661Z,5.20
2018-11-14T03:35:49.316Z,5.19
2018-11-14T03:36:49.725Z,5.19
2018-11-14T03:37:50.204Z,5.18
2018-11-14T03:38:50.646Z,5.17
2018-11-14T03:39:51.052Z,5.17
2018-11-14T03:40:51.751Z,5.16
2018-11-14T03:41:51.088Z,5.16
2018-11-14T03:42:52.739Z,5.15
2018-11-14T03:43:53.027Z,5.15
2018-11-14T03:44:53.411Z,5.14
2018-11-14T03:45:53.802Z,5.13
2018-11-14T03:46:54.316Z,5.13
2018-11-14T03:47:54.881Z,5.12
2018-11-14T03:48:54.924Z,5.12
2018-11-14T03:49:55.325Z,5.12
2018-11-14T03:50:55.764Z,5.11
2018-11-14T03:51:56.202Z,5.11
2018-11-14T03:52:56.802Z,5.11
2018-11-14T03:53:57.539Z,5.11
2018-11-14T03:54:57.899Z,5.11
2018-11-14T03:55:58.304Z,5.12
2018-11-14T03:56:58.699Z,5.12
2018-11-14T03:57:59.506Z,5.13
2018-11-14T03:58:59.949Z,5.13
2018-11-14T04:00:00.357Z,5.13
2018-11-14T04:00:08.432Z,5.20
2018-11-14T04:01:09.837Z,5.20
2018-11-14T04:02:09.892Z,5.20
2018-11-14T04:03:10.453Z,5.20
2018-11-14T04:04:10.904Z,5.21
2018-11-14T04:05:11.527Z,5.21
2018-11-14T04:06:11.845Z,5.22
2018-11-14T04:07:12.057Z,5.22
2018-11-14T04:08:12.757Z,5.22
2018-11-14T04:09:12.208Z,5.23
2018-11-14T04:10:12.916Z,5.24
2018-11-14T04:11:14.279Z,5.25
2018-11-14T04:12:14.684Z,5.26
2018-11-14T04:13:15.229Z,5.27
2018-11-14T04:14:15.795Z,5.28
2018-11-14T04:15:16.206Z,5.29
2018-11-14T04:16:16.545Z,5.30
2018-11-14T04:17:16.898Z,5.31
2018-11-14T04:18:17.710Z,5.31
2018-11-14T04:19:18.231Z,5.31
2018-11-14T04:20:18.662Z,5.32
2018-11-14T04:21:19.095Z,5.32
2018-11-14T04:22:19.633Z,5.32
2018-11-14T04:23:20.239Z,5.32
2018-11-14T04:24:20.754Z,5.32
2018-11-14T04:25:21.335Z,5.32
2018-11-14T04:26:21.800Z,5.32
2018-11-14T04:27:22.399Z,5.31
2018-11-14T04:28:23.240Z,5.30
2018-11-14T04:29:23.860Z,5.30
2018-11-14T04:30:23.835Z,5.29
2018-11-14T04:31:24.311Z,5.28
2018-11-14T04:32:24.669Z,5.27
2018-11-14T04:33:25.141Z,5.26
2018-11-14T04:34:26.102Z,5.25
2018-11-14T04:35:26.598Z,5.24
2018-11-14T04:36:26.982Z,5.23
2018-11-14T04:37:27.675Z,5.22
2018-11-14T04:38:28.102Z,5.21
2018-11-14T04:39:28.676Z,5.21
2018-11-14T04:40:29.121Z,5.20
2018-11-14T04:41:28.570Z,5.20
2018-11-14T04:42:30.039Z,5.20
2018-11-14T04:43:30.651Z,5.19
2018-11-14T04:44:31.114Z,5.19
2018-11-14T04:45:31.651Z,5.19
2018-11-14T04:46:33.118Z,5.19
2018-11-14T04:47:32.587Z,5.18
2018-11-14T04:47:40.989Z,5.14
2018-11-14T04:48:42.323Z,5.14
2018-11-14T04:49:42.958Z,5.14
2018-11-14T04:50:43.268Z,5.13
2018-11-14T04:51:43.621Z,5.13
2018-11-14T04:52:44.218Z,5.13
2018-11-14T04:53:44.655Z,5.13
2018-11-14T04:54:45.404Z,5.13
2018-11-14T04:55:45.920Z,5.13
2018-11-14T04:56:46.359Z,5.13
2018-11-14T04:57:46.771Z,5.13
2018-11-14T04:58:47.695Z,5.14
2018-11-14T04:59:48.174Z,5.14
2018-11-14T05:00:48.552Z,5.14
2018-11-14T05:01:48.940Z,5.14
2018-11-14T05:02:49.328Z,5.15
2018-11-14T05:03:49.968Z,5.15
2018-11-14T05:04:50.436Z,5.16
2018-11-14T05:05:51.057Z,5.16
2018-11-14T05:06:51.522Z,5.17
2018-11-14T05:07:51.960Z,5.17
2018-11-14T05:08:52.411Z,5.18
2018-11-14T05:09:52.822Z,5.19
2018-11-14T05:10:53.236Z,5.20
2018-11-14T05:11:53.610Z,5.21
2018-11-14T05:12:54.120Z,5.22
2018-11-14T05:13:53.590Z,5.22
2018-11-14T05:14:54.998Z,5.23
2018-11-14T05:15:55.589Z,5.24
2018-11-14T05:16:54.898Z,5.24
2018-11-14T05:17:56.293Z,5.25
2018-11-14T05:18:57.721Z,5.25
2018-11-14T05:19:57.146Z,5.25
2018-11-14T05:20:57.550Z,5.26
2018-11-14T05:21:57.915Z,5.27
2018-11-14T05:22:58.448Z,5.27
2018-11-14T05:23:58.911Z,5.28
2018-11-14T05:24:59.684Z,5.29
2018-11-14T05:25:59.972Z,5.30
2018-11-14T05:27:00.446Z,5.31
2018-11-14T05:28:01.177Z,5.31
2018-11-14T05:29:01.674Z,5.32
2018-11-14T05:30:02.158Z,5.33
2018-11-14T05:31:02.719Z,5.35
2018-11-14T05:32:03.317Z,5.36
2018-11-14T05:33:03.019Z,5.38
2018-11-14T05:34:04.742Z,5.39
2018-11-14T05:34:24.753Z,5.66
2018-11-14T05:35:25.423Z,5.66
2018-11-14T05:36:26.096Z,5.66
2018-11-14T05:37:26.615Z,5.66
2018-11-14T05:38:27.293Z,5.66
2018-11-14T05:39:27.159Z,5.66
2018-11-14T05:40:29.075Z,5.66
2018-11-14T05:41:29.110Z,5.66
2018-11-14T05:42:29.659Z,5.66
2018-11-14T05:43:30.339Z,5.66
2018-11-14T05:44:30.767Z,5.67
2018-11-14T05:45:31.335Z,5.67
2018-11-14T05:46:30.656Z,5.67
2018-11-14T05:47:32.077Z,5.68
2018-11-14T05:48:32.544Z,5.68
2018-11-14T05:49:33.009Z,5.68
2018-11-14T05:50:33.779Z,5.69
2018-11-14T05:51:34.394Z,5.69
2018-11-14T05:52:35.287Z,5.69
2018-11-14T05:53:35.882Z,5.69
2018-11-14T05:54:36.775Z,5.70
2018-11-14T05:55:37.576Z,5.70
2018-11-14T05:56:38.065Z,5.70
2018-11-14T05:57:38.702Z,5.71
2018-11-14T05:58:39.611Z,5.71
2018-11-14T05:59:40.185Z,5.71
2018-11-14T06:00:40.729Z,5.72
2018-11-14T06:01:41.292Z,5.72
2018-11-14T06:02:41.890Z,5.72
2018-11-14T06:03:42.379Z,5.73
2018-11-14T06:04:42.967Z,5.73
2018-11-14T06:05:43.462Z,5.73
2018-11-14T06:06:42.782Z,5.73
2018-11-14T06:07:44.405Z,5.74
2018-11-14T06:08:44.971Z,5.73
2018-11-14T06:09:45.470Z,5.73
2018-11-14T06:10:45.921Z,5.73
2018-11-14T06:11:46.675Z,5.73
2018-11-14T06:12:46.209Z,5.74
2018-11-14T06:13:48.006Z,5.74
2018-11-14T06:14:48.356Z,5.74
2018-11-14T06:15:49.210Z,5.74
2018-11-14T06:16:49.623Z,5.75
2018-11-14T06:17:49.977Z,5.75
2018-11-14T06:18:50.556Z,5.75
2018-11-14T06:19:51.055Z,5.75
2018-11-14T06:20:51.743Z,5.76
2018-11-14T06:23:49.124Z,5.82
2018-11-14T06:24:48.595Z,5.82
2018-11-14T06:25:50.281Z,5.82
2018-11-14T06:26:50.599Z,5.82
2018-11-14T06:27:51.549Z,5.82
2018-11-14T06:28:52.984Z,5.82
2018-11-14T06:29:52.642Z,5.81
2018-11-14T06:30:52.011Z,5.81
2018-11-14T06:31:52.580Z,5.82
2018-11-14T06:32:54.027Z,5.82
2018-11-14T06:33:54.410Z,5.82
2018-11-14T06:34:54.814Z,5.83
2018-11-14T06:35:55.485Z,5.84
2018-11-14T06:36:56.062Z,5.85
2018-11-14T06:37:56.461Z,5.85
2018-11-14T06:38:57.114Z,5.86
2018-11-14T06:39:57.574Z,5.87
2018-11-14T06:40:58.029Z,5.87
2018-11-14T06:41:58.788Z,5.88
2018-11-14T06:42:59.220Z,5.89
2018-11-14T06:43:59.540Z,5.90
2018-11-14T06:44:59.927Z,5.90
2018-11-14T06:46:00.085Z,5.91
2018-11-14T06:47:00.527Z,5.92
2018-11-14T06:48:01.173Z,5.93
2018-11-14T06:49:33.480Z,6.11
2018-11-14T06:50:35.050Z,6.11
2018-11-14T06:51:35.849Z,6.11
2018-11-14T06:52:36.444Z,6.11
2018-11-14T06:53:36.939Z,6.11
2018-11-14T06:54:37.422Z,6.11
2018-11-14T06:55:37.932Z,6.11
2018-11-14T06:56:38.428Z,6.11
2018-11-14T06:57:39.065Z,6.11
2018-11-14T06:58:39.683Z,6.11
2018-11-14T06:59:39.164Z,6.10
2018-11-14T07:00:39.507Z,6.10
2018-11-14T07:01:41.057Z,6.10
2018-11-14T07:02:41.560Z,6.10
2018-11-14T07:03:41.984Z,6.10
2018-11-14T07:04:42.385Z,6.10
2018-11-14T07:05:42.857Z,6.10
2018-11-14T07:06:42.589Z,6.10
2018-11-14T07:07:44.024Z,6.10
2018-11-14T07:08:44.526Z,6.11
2018-11-14T07:09:45.331Z,6.11
2018-11-14T07:10:45.759Z,6.11
2018-11-14T07:11:45.177Z,6.11
2018-11-14T07:12:46.435Z,6.11
2018-11-14T07:13:46.840Z,6.11
2018-11-14T07:14:47.378Z,6.11
2018-11-14T07:15:47.385Z,6.11
2018-11-14T07:16:47.865Z,6.11
2018-11-14T07:17:48.600Z,6.12
2018-11-14T07:18:47.993Z,6.12
2018-11-14T07:19:49.518Z,6.12
2018-11-14T07:20:49.932Z,6.12
2018-11-14T07:21:50.382Z,6.12
2018-11-14T07:22:50.854Z,6.13
2018-11-14T07:23:51.334Z,6.13
2018-11-14T07:24:50.755Z,6.13
2018-11-14T07:25:52.449Z,6.13
2018-11-14T07:26:54.606Z,6.14
2018-11-14T07:27:53.385Z,6.14
2018-11-14T07:28:53.764Z,6.15
2018-11-14T07:29:54.240Z,6.16
2018-11-14T07:30:54.608Z,6.16
2018-11-14T07:31:55.099Z,6.17
2018-11-14T07:32:55.536Z,6.18
2018-11-14T07:33:55.908Z,6.19
2018-11-14T07:34:56.367Z,6.20
2018-11-14T07:35:56.778Z,6.21
2018-11-14T07:36:57.597Z,6.22
2018-11-14T07:37:58.273Z,6.24
2018-11-14T07:38:57.905Z,6.25
2018-11-14T07:39:59.361Z,6.27
2018-11-14T07:40:07.728Z,6.53
2018-11-14T07:41:08.552Z,6.52
2018-11-14T07:42:09.006Z,6.52
2018-11-14T07:43:09.358Z,6.52
2018-11-14T07:44:09.739Z,6.52
2018-11-14T07:45:10.128Z,6.52
2018-11-14T07:46:10.880Z,6.51
2018-11-14T07:47:11.385Z,6.51
2018-11-14T07:48:11.772Z,6.50
2018-11-14T07:49:12.343Z,6.50
2018-11-14T07:50:12.085Z,6.49
2018-11-14T07:51:12.525Z,6.49
2018-11-14T07:52:13.970Z,6.49
2018-11-14T07:53:14.438Z,6.49
2018-11-14T07:54:14.894Z,6.48
2018-11-14T07:55:15.475Z,6.48
2018-11-14T07:56:15.833Z,6.48
2018-11-14T07:57:16.242Z,6.48
2018-11-14T07:58:16.835Z,6.49
2018-11-14T07:59:17.301Z,6.49
2018-11-14T08:00:17.739Z,6.49
2018-11-14T08:01:18.644Z,6.49
2018-11-14T08:02:19.237Z,6.49
2018-11-14T08:03:18.511Z,6.49
2018-11-14T08:04:20.031Z,6.49
2018-11-14T08:05:20.636Z,6.49
2018-11-14T08:06:21.261Z,6.49
2018-11-14T08:07:21.695Z,6.50
2018-11-14T08:08:22.309Z,6.50
2018-11-14T08:09:21.626Z,6.50
2018-11-14T08:10:23.003Z,6.50
2018-11-14T08:11:23.346Z,6.50
2018-11-14T08:12:23.982Z,6.50
2018-11-14T08:13:24.545Z,6.51
2018-11-14T08:14:24.974Z,6.52
2018-11-14T08:15:25.031Z,6.52
2018-11-14T08:16:25.644Z,6.53
2018-11-14T08:17:26.062Z,6.53
2018-11-14T08:18:26.910Z,6.54
2018-11-14T08:19:27.574Z,6.54
2018-11-14T08:20:27.953Z,6.55
2018-11-14T08:21:28.719Z,6.56
2018-11-14T08:22:29.152Z,6.57
2018-11-14T08:23:29.693Z,6.57
2018-11-14T08:24:30.090Z,6.58
2018-11-14T08:25:30.587Z,6.59
2018-11-14T08:26:31.049Z,6.60
2018-11-14T08:27:31.509Z,6.61
2018-11-14T08:27:39.923Z,6.77
2018-11-14T08:28:41.306Z,6.77
2018-11-14T08:29:41.870Z,6.77
2018-11-14T08:30:42.318Z,6.77
2018-11-14T08:31:41.571Z,6.77
2018-11-14T08:32:43.093Z,6.77
2018-11-14T08:33:43.614Z,6.78
2018-11-14T08:34:44.103Z,6.78
2018-11-14T08:35:44.764Z,6.79
2018-11-14T08:36:45.419Z,6.79
2018-11-14T08:37:46.158Z,6.80
2018-11-14T08:38:46.586Z,6.81
2018-11-14T08:39:47.028Z,6.81
2018-11-14T08:40:47.632Z,6.82
2018-11-14T08:41:47.153Z,6.83
2018-11-14T08:42:48.729Z,6.84
2018-11-14T08:43:49.192Z,6.85
2018-11-14T08:44:49.629Z,6.86
2018-11-14T08:45:50.215Z,6.87
2018-11-14T08:46:50.617Z,6.87
2018-11-14T08:47:51.169Z,6.89
2018-11-14T08:48:51.590Z,6.90
2018-11-14T08:49:52.099Z,6.91
2018-11-14T08:50:52.787Z,6.92
2018-11-14T08:51:53.527Z,6.93
2018-11-14T08:52:54.007Z,6.95
2018-11-14T08:53:54.398Z,6.96
2018-11-14T08:54:54.633Z,6.97
2018-11-14T08:55:54.800Z,6.98
2018-11-14T08:56:55.451Z,6.99
2018-11-14T08:57:56.043Z,7.00
2018-11-14T08:58:56.584Z,7.01
2018-11-14T08:59:57.168Z,7.02
2018-11-14T09:00:58.571Z,7.03
2018-11-14T09:01:58.040Z,7.04
2018-11-14T09:02:58.525Z,7.04
2018-11-14T09:03:58.848Z,7.05
2018-11-14T09:04:58.291Z,7.05
2018-11-14T09:05:59.745Z,7.06
2018-11-14T09:07:00.208Z,7.06
2018-11-14T09:08:00.231Z,7.06
2018-11-14T09:09:00.878Z,7.07
2018-11-14T09:10:01.430Z,7.07
2018-11-14T09:11:01.900Z,7.08
2018-11-14T09:12:01.602Z,7.08
2018-11-14T09:13:03.426Z,7.08
2018-11-14T09:14:02.977Z,7.09
2018-11-14T09:15:04.603Z,7.09
2018-11-14T09:16:03.902Z,7.10
2018-11-14T09:17:05.283Z,7.11
2018-11-14T09:17:27.392Z,7.23
2018-11-14T09:18:27.511Z,7.22
2018-11-14T09:19:28.025Z,7.23
2018-11-14T09:20:28.451Z,7.22
2018-11-14T09:21:29.853Z,7.22
2018-11-14T09:22:30.375Z,7.22
2018-11-14T09:23:31.110Z,7.22
2018-11-14T09:24:31.558Z,7.22
2018-11-14T09:25:32.181Z,7.22
2018-11-14T09:26:32.659Z,7.22
2018-11-14T09:27:32.994Z,7.21
2018-11-14T09:28:33.819Z,7.21
2018-11-14T09:29:34.272Z,7.20
2018-11-14T09:30:34.674Z,7.20
2018-11-14T09:31:35.565Z,7.20
2018-11-14T09:32:35.978Z,7.20
2018-11-14T09:33:36.373Z,7.20
2018-11-14T09:34:36.794Z,7.20
2018-11-14T09:35:36.158Z,7.20
2018-11-14T09:36:37.582Z,7.19
2018-11-14T09:37:38.182Z,7.19
2018-11-14T09:38:38.639Z,7.19
2018-11-14T09:39:39.141Z,7.18
2018-11-14T09:40:39.620Z,7.18
2018-11-14T09:41:39.001Z,7.18
2018-11-14T09:42:40.326Z,7.18
2018-11-14T09:43:40.884Z,7.17
2018-11-14T09:44:40.421Z,7.17
2018-11-14T09:45:41.334Z,7.17
2018-11-14T09:46:42.797Z,7.17
2018-11-14T09:47:43.178Z,7.17
2018-11-14T09:48:44.075Z,7.16
2018-11-14T09:49:44.477Z,7.16
2018-11-14T09:50:44.989Z,7.16
2018-11-14T09:51:45.647Z,7.16
2018-11-14T09:52:46.162Z,7.16
2018-11-14T09:53:45.995Z,7.16
2018-11-14T09:54:47.374Z,7.16
2018-11-14T09:55:48.220Z,7.15
2018-11-14T09:56:48.737Z,7.15
2018-11-14T09:57:48.022Z,7.15
2018-11-14T09:58:49.616Z,7.14
2018-11-14T09:59:48.950Z,7.14
2018-11-14T10:00:50.479Z,7.13
2018-11-14T10:01:50.862Z,7.13
2018-11-14T10:02:51.675Z,7.13
2018-11-14T10:03:51.021Z,7.13
2018-11-14T10:04:51.828Z,7.12
2018-11-14T10:05:53.480Z,7.12
2018-11-14T10:06:53.823Z,7.12
2018-11-14T10:07:54.300Z,7.12
2018-11-14T10:08:53.650Z,7.12
2018-11-14T10:09:55.067Z,7.13
2018-11-14T10:10:55.876Z,7.13
2018-11-14T10:11:55.467Z,7.13
2018-11-14T10:12:56.902Z,7.13
2018-11-14T10:13:06.244Z,7.13
2018-11-14T10:14:06.026Z,7.13
2018-11-14T10:15:05.414Z,7.13
2018-11-14T10:16:06.844Z,7.12
2018-11-14T10:17:07.304Z,7.12
2018-11-14T10:18:07.772Z,7.12
2018-11-14T10:19:08.133Z,7.12
2018-11-14T10:20:08.419Z,7.12
2018-11-14T10:21:09.131Z,7.12
2018-11-14T10:22:07.971Z,7.12
2018-11-14T10:23:09.422Z,7.12
2018-11-14T10:24:09.880Z,7.13
2018-11-14T10:25:10.537Z,7.14
2018-11-14T10:26:11.212Z,7.15
2018-11-14T10:27:11.607Z,7.16
2018-11-14T10:28:12.366Z,7.16
2018-11-14T10:29:12.974Z,7.17
2018-11-14T10:30:13.921Z,7.19
2018-11-14T10:31:14.670Z,7.20
2018-11-14T10:32:15.243Z,7.21
2018-11-14T10:33:15.970Z,7.22
2018-11-14T10:34:16.432Z,7.23
2018-11-14T10:35:16.948Z,7.25
2018-11-14T10:36:17.344Z,7.26
2018-11-14T10:37:17.515Z,7.27
2018-11-14T10:38:17.845Z,7.29
2018-11-14T10:39:18.522Z,7.31
2018-11-14T10:40:19.028Z,7.32
2018-11-14T10:41:19.626Z,7.34
2018-11-14T10:42:19.706Z,7.36
2018-11-14T10:43:20.215Z,7.38
2018-11-14T10:44:20.776Z,7.40
2018-11-14T10:45:21.168Z,7.42
2018-11-14T10:46:20.538Z,7.44
2018-11-14T10:47:22.007Z,7.46
2018-11-14T10:48:22.489Z,7.48
2018-11-14T10:49:23.065Z,7.49
2018-11-14T10:50:23.482Z,7.51
2018-11-14T10:51:23.965Z,7.52
2018-11-14T10:52:24.398Z,7.53
2018-11-14T10:53:24.852Z,7.53
2018-11-14T10:54:25.416Z,7.54
2018-11-14T10:55:25.831Z,7.55
2018-11-14T10:56:26.509Z,7.55
2018-11-14T10:57:27.452Z,7.56
2018-11-14T10:58:27.960Z,7.56
2018-11-14T10:59:27.489Z,7.56
2018-11-14T11:00:28.921Z,7.56
2018-11-14T11:01:29.467Z,7.55
2018-11-14T11:02:30.121Z,7.55
2018-11-14T11:02:38.687Z,7.53
2018-11-14T11:03:40.131Z,7.53
2018-11-14T11:04:40.677Z,7.53
2018-11-14T11:05:40.972Z,7.52
2018-11-14T11:06:41.370Z,7.51
2018-11-14T11:07:41.759Z,7.50
2018-11-14T11:08:42.183Z,7.50
2018-11-14T11:09:41.456Z,7.49
2018-11-14T11:10:42.875Z,7.49
2018-11-14T11:11:43.333Z,7.49
2018-11-14T11:12:43.823Z,7.49
2018-11-14T11:13:44.712Z,7.50
2018-11-14T11:14:44.050Z,7.50
2018-11-14T11:15:45.448Z,7.51
2018-11-14T11:16:45.840Z,7.52
2018-11-14T11:17:46.285Z,7.52
2018-11-14T11:18:46.902Z,7.53
2018-11-14T11:19:46.591Z,7.53
2018-11-14T11:20:48.035Z,7.53
2018-11-14T11:21:48.434Z,7.53
2018-11-14T11:22:48.926Z,7.53
2018-11-14T11:23:49.624Z,7.53
2018-11-14T11:24:49.921Z,7.53
2018-11-14T11:25:50.515Z,7.53
2018-11-14T11:26:51.357Z,7.52
2018-11-14T11:27:51.569Z,7.51
2018-11-14T11:28:52.105Z,7.50
2018-11-14T11:29:52.499Z,7.49
2018-11-14T11:30:53.087Z,7.47
2018-11-14T11:31:52.221Z,7.46
2018-11-14T11:32:52.589Z,7.45
2018-11-14T11:33:53.933Z,7.45
2018-11-14T11:34:54.911Z,7.44
2018-11-14T11:35:55.365Z,7.43
2018-11-14T11:36:55.718Z,7.43
2018-11-14T11:37:56.144Z,7.43
2018-11-14T11:38:55.506Z,7.43
2018-11-14T11:39:56.846Z,7.45
2018-11-14T11:40:57.252Z,7.46
2018-11-14T11:41:57.821Z,7.47
2018-11-14T11:42:58.299Z,7.48
2018-11-14T11:43:58.742Z,7.49
2018-11-14T11:44:59.396Z,7.51
2018-11-14T11:45:59.779Z,7.52
2018-11-14T11:47:00.623Z,7.54
2018-11-14T11:48:01.063Z,7.57
2018-11-14T11:49:01.707Z,7.59
2018-11-14T11:50:02.017Z,7.62
2018-11-14T11:51:02.457Z,7.64
2018-11-14T11:52:01.459Z,7.68
2018-11-14T11:53:02.980Z,7.71
2018-11-14T11:53:11.710Z,8.21
2018-11-14T11:54:12.271Z,8.21
2018-11-14T11:55:12.825Z,8.21
2018-11-14T11:56:13.230Z,8.21
2018-11-14T11:57:13.731Z,8.22
2018-11-14T11:58:15.485Z,8.23
2018-11-14T11:59:14.823Z,8.24
2018-11-14T12:00:15.351Z,8.25
2018-11-14T12:01:14.682Z,8.26
2018-11-14T12:02:16.265Z,8.27
2018-11-14T12:03:15.905Z,8.28
2018-11-14T12:04:17.357Z,8.28
2018-11-14T12:05:18.273Z,8.29
2018-11-14T12:06:19.371Z,8.29
2018-11-14T12:07:18.402Z,8.29
2018-11-14T12:08:19.196Z,8.29
2018-11-14T12:09:19.408Z,8.28
2018-11-14T12:10:20.030Z,8.28
2018-11-14T12:11:20.449Z,8.28
2018-11-14T12:12:20.952Z,8.28
2018-11-14T12:13:23.050Z,8.29
2018-11-14T12:14:22.355Z,8.30
2018-11-14T12:15:22.815Z,8.31
2018-11-14T12:16:24.199Z,8.32
2018-11-14T12:17:25.106Z,8.34
2018-11-14T12:18:24.546Z,8.35
2018-11-14T12:19:24.630Z,8.37
2018-11-14T12:20:26.994Z,8.39
2018-11-14T12:21:27.013Z,8.40
2018-11-14T12:22:26.997Z,8.42
2018-11-14T12:23:25.983Z,8.44
2018-11-14T12:24:26.806Z,8.46
2018-11-14T12:25:27.370Z,8.47
2018-11-14T12:26:29.093Z,8.49
2018-11-14T12:27:29.655Z,8.51
2018-11-14T12:28:29.063Z,8.53
2018-11-14T12:29:30.491Z,8.55
2018-11-14T12:30:30.850Z,8.56
2018-11-14T12:31:30.108Z,8.58
2018-11-14T12:32:31.685Z,8.61
2018-11-14T12:33:32.092Z,8.63
2018-11-14T12:34:32.453Z,8.65
2018-11-14T12:35:32.102Z,8.67
2018-11-14T12:36:32.558Z,8.69
2018-11-14T12:37:34.012Z,8.71
2018-11-14T12:38:34.383Z,8.73
2018-11-14T12:39:35.013Z,8.75
2018-11-14T12:40:35.421Z,8.77
2018-11-14T12:41:35.874Z,8.78
2018-11-14T12:42:36.232Z,8.80
2018-11-14T12:43:36.599Z,8.82
2018-11-14T12:44:37.015Z,8.83
2018-11-14T12:45:37.466Z,8.84
2018-11-14T12:46:38.088Z,8.85
2018-11-14T12:47:38.423Z,8.86
2018-11-14T12:48:39.799Z,8.87
2018-11-14T12:49:39.177Z,8.89
2018-11-14T12:50:39.576Z,8.91
2018-11-14T12:51:40.092Z,8.93
2018-11-14T12:52:40.582Z,8.95
2018-11-14T12:53:39.869Z,8.97
2018-11-14T12:53:48.295Z,9.35
2018-11-14T12:54:48.957Z,9.35
2018-11-14T12:55:49.456Z,9.35
2018-11-14T12:56:49.777Z,9.35
2018-11-14T12:57:50.119Z,9.35
2018-11-14T12:58:50.605Z,9.36
2018-11-14T12:59:51.190Z,9.37
2018-11-14T13:00:50.465Z,9.38
2018-11-14T13:01:51.912Z,9.39
2018-11-14T13:02:52.255Z,9.39
2018-11-14T13:03:52.572Z,9.40
2018-11-14T13:04:53.072Z,9.42
2018-11-14T13:05:53.629Z,9.43
2018-11-14T13:06:54.066Z,9.45
2018-11-14T13:07:54.585Z,9.46
2018-11-14T13:08:55.245Z,9.47
2018-11-14T13:09:55.590Z,9.49
2018-11-14T13:10:56.066Z,9.50
2018-11-14T13:11:56.392Z,9.52
2018-11-14T13:12:56.987Z,9.54
2018-11-14T13:13:57.494Z,9.56
2018-11-14T13:14:57.894Z,9.58
2018-11-14T13:15:58.280Z,9.59